Time;durP1;ratioP1;P1;durP2;ratioP2;P2;SDS_P1;SDS_P2;PMS_P1;PMS_P2;Temp;Humidity;BMP_temperature;BMP_pressure;BME280_temperature;BME280_humidity;BME280_pressure;Samples;Min_cycle;Max_cycle;Signal;HPM_P1;HPM_P2
2021/08/20 11:00:55;;;;;;;6.35;3.83;;;;;;;28.38;40.52;100044.37;1782779;79;20936;-40
2021/08/20 11:03:39;;;;;;;9.03;3.62;;;;;;;28.39;40.39;100037.23;1724922;81;20975;-41
2021/08/20 11:06:05;;;;;;;8.55;3.90;;;;;;;28.51;39.61;100041.30;1799073;79;20909;-42
2021/08/20 11:08:33;;;;;;;6.95;3.50;;;;;;;28.73;37.77;100035.63;1773826;79;21138;-41
2021/08/20 11:11:02;;;;;;;11.50;4.55;;;;;;;28.84;39.07;100046.03;1744164;81;20880;-42
2021/08/20 11:13:30;;;;;;;12.07;3.90;;;;;;;28.77;38.82;100044.97;1755193;79;20915;-42
2021/08/20 11:15:58;;;;;;;11.28;3.90;;;;;;;28.73;39.71;100039.63;1780479;79;20968;-42
2021/08/20 11:18:47;;;;;;;9.55;4.42;;;;;;;28.92;39.97;100034.59;1772930;80;21005;-41
2021/08/20 11:21:43;;;;;;;10.68;3.85;;;;;;;29.33;40.11;100041.92;1773740;80;21085;-42
2021/08/20 11:24:17;;;;;;;14.70;4.20;;;;;;;29.64;39.76;100034.71;1772881;79;21528;-42
2021/08/20 11:26:44;;;;;;;8.98;4.05;;;;;;;29.77;36.98;100038.23;1754618;80;21014;-42
2021/08/20 11:29:13;;;;;;;8.40;3.80;;;;;;;29.46;38.12;100037.02;1766148;79;20911;-41
2021/08/20 11:31:43;;;;;;;8.05;3.92;;;;;;;29.19;38.07;100036.72;1794547;79;20837;-41
2021/08/20 11:34:09;;;;;;;4.40;3.67;;;;;;;28.65;39.32;100029.76;1805719;79;21126;-42
2021/08/20 11:36:43;;;;;;;11.12;4.25;;;;;;;28.27;39.73;100026.48;1789015;79;21107;-41
2021/08/20 11:39:12;;;;;;;14.15;4.00;;;;;;;28.19;40.92;100028.09;1769539;80;20958;-41
2021/08/20 11:41:44;;;;;;;5.67;3.87;;;;;;;28.18;41.27;100026.94;1777045;80;20986;-41
2021/08/20 11:44:13;;;;;;;9.68;4.00;;;;;;;28.00;39.77;100027.75;1778771;80;21014;-42
2021/08/20 11:46:44;;;;;;;9.55;4.17;;;;;;;27.79;41.74;100025.41;1784347;79;21144;-41
2021/08/20 11:49:24;;;;;;;4.37;3.83;;;;;;;27.83;42.65;100027.59;1790114;78;20909;-42
2021/08/20 11:51:51;;;;;;;7.87;4.08;;;;;;;28.05;42.08;100014.00;1807402;78;20971;-43
2021/08/20 11:54:18;;;;;;;7.00;4.08;;;;;;;28.07;41.76;100028.80;1778982;78;20928;-42
2021/08/20 11:56:50;;;;;;;14.45;3.90;;;;;;;28.16;40.41;100022.24;1797207;79;20979;-41
2021/08/20 11:59:17;;;;;;;9.58;4.20;;;;;;;28.13;40.04;100019.86;1795524;78;21214;-41
2021/08/20 12:01:45;;;;;;;12.45;4.08;;;;;;;28.08;40.51;100012.36;1767654;79;20979;-42
2021/08/20 12:04:11;;;;;;;14.55;4.08;;;;;;;28.07;41.03;100012.84;1806338;79;20940;-42
2021/08/20 12:06:38;;;;;;;12.23;3.90;;;;;;;28.02;40.76;100011.14;1794394;79;20951;-41
2021/08/20 12:09:18;;;;;;;8.30;3.62;;;;;;;27.97;41.26;100012.10;1779445;79;20842;-42
2021/08/20 12:11:52;;;;;;;9.30;3.50;;;;;;;27.84;42.70;100024.45;1772773;80;21126;-41
2021/08/20 12:14:24;;;;;;;8.53;4.00;;;;;;;27.67;42.27;100023.45;1772223;80;22026;-41
2021/08/20 12:16:53;;;;;;;14.07;4.47;;;;;;;27.61;43.23;100025.36;1771180;80;20940;-41
2021/08/20 12:19:30;;;;;;;13.35;4.25;;;;;;;27.36;42.63;100037.87;1774209;80;21603;-40
2021/08/20 12:22:15;;;;;;;12.50;4.25;;;;;;;27.09;43.36;100034.70;1772081;80;20943;-42
2021/08/20 12:24:48;;;;;;;13.48;3.72;;;;;;;27.14;43.64;100037.75;1765715;80;21115;-41
2021/08/20 12:27:30;;;;;;;8.98;4.30;;;;;;;27.19;43.83;100032.00;1776605;79;21035;-42
2021/08/20 12:30:05;;;;;;;11.43;4.30;;;;;;;27.30;44.42;100032.30;1771956;79;21059;-41
2021/08/20 12:32:35;;;;;;;14.35;4.35;;;;;;;27.43;43.83;100027.49;1752601;80;21008;-43
2021/08/20 12:35:19;;;;;;;6.90;3.92;;;;;;;27.49;42.85;100020.72;1741691;80;20999;-42
2021/08/20 12:38:12;;;;;;;7.85;4.33;;;;;;;27.54;43.51;100028.62;1744703;81;21103;-41
2021/08/20 12:40:54;;;;;;;12.40;3.98;;;;;;;27.53;43.47;100028.77;1754377;80;21056;-42
2021/08/20 12:43:28;;;;;;;12.10;4.30;;;;;;;27.39;43.73;100030.08;1739279;81;21014;-42
2021/08/20 12:46:13;;;;;;;16.05;4.17;;;;;;;27.37;43.27;100038.21;1710467;82;21031;-41
2021/08/20 12:48:42;;;;;;;;;;;;;;;27.32;44.07;100029.85;1738657;81;20960;-42
2021/08/20 12:51:12;;;;;;;10.98;4.58;;;;;;;27.23;45.31;100036.03;1732676;82;21134;-42
2021/08/20 12:53:38;;;;;;;8.68;4.20;;;;;;;27.14;44.75;100036.42;1715815;82;21093;-42
2021/08/20 12:56:07;;;;;;;7.85;4.25;;;;;;;27.06;45.32;100045.62;1775423;78;20980;-41
2021/08/20 12:58:35;;;;;;;8.60;4.55;;;;;;;27.03;45.10;100041.45;1769317;80;20992;-42
2021/08/20 13:01:07;;;;;;;6.92;3.77;;;;;;;26.93;45.49;100046.80;1778440;78;21010;-42
2021/08/20 13:03:35;;;;;;;15.25;4.65;;;;;;;26.86;45.78;100052.31;1765031;79;21034;-43
2021/08/20 13:06:08;;;;;;;11.05;4.80;;;;;;;26.80;44.65;100047.08;1766206;80;21016;-41
2021/08/20 13:08:36;;;;;;;7.92;4.65;;;;;;;26.77;44.61;100047.85;1783059;78;22201;-41
2021/08/20 13:11:05;;;;;;;6.70;4.37;;;;;;;26.74;45.18;100050.29;1766806;79;21634;-41
2021/08/20 13:13:32;;;;;;;7.95;4.25;;;;;;;26.74;45.06;100053.45;1769730;80;21018;-43
2021/08/20 13:16:01;;;;;;;8.38;4.45;;;;;;;26.71;45.31;100052.41;1790885;79;21050;-42
2021/08/20 13:18:27;;;;;;;15.23;4.78;;;;;;;26.66;45.48;100049.70;1805431;79;21596;-42
2021/08/20 13:20:57;;;;;;;8.28;5.00;;;;;;;26.72;45.17;100057.56;1782990;79;21620;-41
2021/08/20 13:23:24;;;;;;;9.83;5.00;;;;;;;26.74;45.28;100057.44;1761252;80;21020;-41
2021/08/20 13:25:50;;;;;;;13.40;4.75;;;;;;;26.79;46.51;100067.97;1753320;80;20964;-41
2021/08/20 13:28:18;;;;;;;11.95;4.70;;;;;;;26.85;45.18;100062.59;1761510;80;21166;-42
2021/08/20 13:30:44;;;;;;;14.40;5.05;;;;;;;26.91;45.60;100063.84;1767352;80;20936;-40
2021/08/20 13:33:11;;;;;;;6.15;4.20;;;;;;;26.95;45.33;100074.52;1764815;79;20967;-41
2021/08/20 13:35:38;;;;;;;11.83;4.92;;;;;;;26.97;44.67;100079.19;1765057;79;21156;-43
2021/08/20 13:38:05;;;;;;;11.60;5.05;;;;;;;26.93;44.00;100078.66;1785079;79;20963;-41
2021/08/20 13:40:36;;;;;;;10.10;4.70;;;;;;;26.87;44.67;100079.72;1769784;80;21804;-41
2021/08/20 13:43:10;;;;;;;10.75;4.58;;;;;;;26.78;44.61;100076.92;1754904;80;21560;-42
2021/08/20 13:45:43;;;;;;;8.08;5.05;;;;;;;26.71;44.96;100073.14;1748290;80;21603;-44
2021/08/20 13:48:09;;;;;;;8.38;5.65;;;;;;;26.68;45.04;100068.13;1766316;80;20985;-42
2021/08/20 13:50:36;;;;;;;10.98;4.87;;;;;;;26.67;45.13;100074.41;1756499;80;20997;-40
2021/08/20 13:53:04;;;;;;;11.97;5.37;;;;;;;26.62;45.59;100077.48;1754663;80;21208;-40
2021/08/20 13:55:32;;;;;;;10.98;5.10;;;;;;;26.61;46.15;100078.97;1796295;79;20967;-42
2021/08/20 13:57:58;;;;;;;8.40;5.30;;;;;;;26.59;45.60;100078.27;1788937;79;21599;-43
2021/08/20 14:00:25;;;;;;;16.75;6.30;;;;;;;26.55;46.11;100076.38;1780376;79;20908;-42
2021/08/20 14:02:52;;;;;;;21.73;6.22;;;;;;;26.55;46.39;100079.03;1759842;79;20937;-42
2021/08/20 14:05:18;;;;;;;17.73;6.35;;;;;;;26.54;46.55;100077.36;1774601;79;21615;-40
2021/08/20 14:07:45;;;;;;;9.98;6.08;;;;;;;26.57;47.15;100073.60;1764667;79;20963;-41
2021/08/20 14:10:12;;;;;;;15.13;5.37;;;;;;;26.57;47.42;100074.93;1767742;79;21071;-42
2021/08/20 14:12:38;;;;;;;13.55;5.47;;;;;;;26.61;47.37;100077.64;1705951;82;22246;-46
2021/08/20 14:15:06;;;;;;;9.55;5.05;;;;;;;26.62;46.96;100080.13;1791495;79;21064;-40
2021/08/20 14:17:35;;;;;;;18.65;6.10;;;;;;;26.61;48.30;100076.31;1756889;80;21133;-42
2021/08/20 14:20:09;;;;;;;13.08;6.10;;;;;;;26.59;47.05;100075.62;1781861;79;22162;-43
2021/08/20 14:22:37;;;;;;;11.43;7.50;;;;;;;26.57;48.13;100075.75;1733790;80;21529;-42
2021/08/20 14:25:09;;;;;;;20.25;9.55;;;;;;;26.55;49.56;100072.41;1782198;79;21501;-42
2021/08/20 14:27:35;;;;;;;22.73;8.68;;;;;;;26.51;50.28;100075.81;1774360;80;21007;-41
2021/08/20 14:30:04;;;;;;;15.20;6.50;;;;;;;26.48;51.39;100076.61;1770375;80;21133;-40
2021/08/20 14:32:30;;;;;;;20.10;6.08;;;;;;;26.48;50.32;100073.95;1767119;80;20964;-41
2021/08/20 14:34:56;;;;;;;11.63;6.40;;;;;;;26.48;49.96;100073.95;1757636;79;20967;-42
2021/08/20 14:37:23;;;;;;;11.15;5.95;;;;;;;26.50;50.75;100079.45;1804809;79;20968;-42
2021/08/20 14:39:50;;;;;;;18.50;6.58;;;;;;;26.53;50.84;100075.69;1790314;79;20960;-43
2021/08/20 14:42:16;;;;;;;10.25;5.60;;;;;;;26.58;51.44;100070.79;1802725;78;21098;-41
2021/08/20 14:44:44;;;;;;;15.72;6.72;;;;;;;26.60;52.26;100064.02;1793812;79;20935;-43
2021/08/20 14:47:11;;;;;;;9.90;6.10;;;;;;;26.59;52.92;100062.35;1771735;80;21034;-41
2021/08/20 14:49:37;;;;;;;8.48;5.20;;;;;;;26.55;54.26;100053.83;1770109;80;20948;-42
2021/08/20 14:52:06;;;;;;;10.63;5.30;;;;;;;26.44;53.46;100064.11;1770285;80;21105;-41
2021/08/20 14:54:34;;;;;;;10.70;5.33;;;;;;;26.22;53.98;100066.06;1775394;80;21153;-41
2021/08/20 14:57:01;;;;;;;15.38;4.92;;;;;;;26.17;53.69;100065.66;1771861;78;21038;-43
2021/08/20 14:59:27;;;;;;;12.95;5.42;;;;;;;26.18;53.60;100069.16;1770205;80;21544;-42
2021/08/20 15:01:54;;;;;;;6.92;5.15;;;;;;;26.17;53.36;100072.28;1756469;80;21078;-41
2021/08/20 15:04:20;;;;;;;16.12;4.85;;;;;;;26.16;54.04;100071.94;1770708;79;20987;-42
2021/08/20 15:06:47;;;;;;;11.10;5.10;;;;;;;26.12;55.30;100073.16;1774000;79;21145;-41
2021/08/20 15:09:15;;;;;;;14.68;5.15;;;;;;;26.02;55.09;100075.80;1771332;79;21553;-43
2021/08/20 15:11:43;;;;;;;12.37;4.78;;;;;;;25.93;53.63;100075.32;1771135;80;21008;-42
2021/08/20 15:14:10;;;;;;;15.72;4.87;;;;;;;25.80;53.08;100070.28;1772677;80;21007;-42
2021/08/20 15:16:37;;;;;;;11.03;4.37;;;;;;;25.72;53.51;100070.95;1756468;80;21038;-42
2021/08/20 15:19:04;;;;;;;8.50;4.42;;;;;;;25.62;53.20;100078.03;1747796;80;21013;-43
2021/08/20 15:21:32;;;;;;;12.50;4.78;;;;;;;25.42;54.70;100078.43;1770797;79;21478;-41
2021/08/20 15:24:00;;;;;;;6.92;4.87;;;;;;;25.25;54.83;100078.93;1770912;79;21595;-42
2021/08/20 15:26:26;;;;;;;6.80;3.95;;;;;;;25.14;51.37;100083.48;1772543;80;20928;-41
2021/08/20 15:28:53;;;;;;;7.42;4.30;;;;;;;25.01;51.62;100077.08;1774013;79;21016;-41
2021/08/20 15:31:19;;;;;;;7.28;4.00;;;;;;;24.94;50.90;100076.75;1776974;79;21140;-40
2021/08/20 15:33:46;;;;;;;6.00;3.58;;;;;;;24.88;49.79;100080.75;1770477;80;20916;-42
2021/08/20 15:36:13;;;;;;;6.55;4.05;;;;;;;24.81;50.03;100079.60;1761167;80;20932;-41
2021/08/20 15:38:39;;;;;;;19.48;4.30;;;;;;;24.75;48.60;100073.02;1774595;80;20964;-42
2021/08/20 15:41:08;;;;;;;22.30;4.37;;;;;;;24.75;50.01;100081.45;1775274;79;20976;-41
2021/08/20 15:43:35;;;;;;;11.28;4.45;;;;;;;24.78;49.63;100081.19;1769839;80;22240;-42
2021/08/20 15:46:03;;;;;;;11.48;4.75;;;;;;;24.87;48.80;100087.02;1769548;79;21860;-41
2021/08/20 15:48:31;;;;;;;7.12;4.65;;;;;;;24.94;48.54;100082.05;1773071;79;21034;-42
2021/08/20 15:50:58;;;;;;;8.50;4.75;;;;;;;25.00;48.30;100078.05;1772995;79;21182;-41
2021/08/20 15:53:24;;;;;;;11.50;4.42;;;;;;;25.01;48.76;100083.69;1795422;79;21246;-42
2021/08/20 15:55:50;;;;;;;8.50;4.30;;;;;;;24.99;47.93;100086.45;1795472;79;21815;-41
2021/08/20 15:58:17;;;;;;;12.23;4.67;;;;;;;25.03;47.05;100085.25;1771401;79;21029;-42
2021/08/20 16:00:44;;;;;;;8.10;4.15;;;;;;;25.00;47.33;100100.05;1795406;79;20964;-40
2021/08/20 16:03:10;;;;;;;5.10;4.33;;;;;;;24.99;47.21;100098.87;1730871;80;21581;-41
2021/08/20 16:05:37;;;;;;;8.45;3.95;;;;;;;24.95;46.57;100099.13;1759415;81;20983;-40
2021/08/20 16:08:04;;;;;;;19.67;10.38;;;;;;;24.90;47.13;100102.66;1704296;80;21146;-41
2021/08/20 16:10:32;;;;;;;24.23;13.50;;;;;;;24.83;47.55;100101.48;1733700;80;20905;-40
2021/08/20 16:12:58;;;;;;;8.53;6.22;;;;;;;24.74;47.12;100096.95;1776442;80;21482;-40
2021/08/20 16:15:27;;;;;;;13.45;4.95;;;;;;;24.66;48.14;100110.34;1790848;79;21012;-41
2021/08/20 16:17:54;;;;;;;6.58;4.53;;;;;;;24.59;47.71;100105.19;1781996;79;21137;-40
2021/08/20 16:20:20;;;;;;;8.83;4.42;;;;;;;24.54;48.26;100106.06;1769779;80;21101;-40
2021/08/20 16:22:47;;;;;;;5.25;4.10;;;;;;;24.51;48.32;100103.67;1786356;79;20901;-41
2021/08/20 16:25:14;;;;;;;13.75;6.50;;;;;;;24.47;48.75;100106.22;1738352;80;20941;-42
2021/08/20 16:27:42;;;;;;;8.70;5.95;;;;;;;24.39;49.03;100102.41;1738434;82;20960;-41
2021/08/20 16:30:11;;;;;;;7.33;5.35;;;;;;;24.30;48.85;100112.91;1767196;80;21078;-41
2021/08/20 16:32:38;;;;;;;19.37;9.48;;;;;;;24.20;49.16;100121.57;1766492;79;21122;-40
2021/08/20 16:35:06;;;;;;;18.60;7.35;;;;;;;24.12;49.47;100124.01;1776873;79;20995;-41
2021/08/20 16:37:33;;;;;;;14.85;8.38;;;;;;;24.03;49.45;100122.13;1767550;79;20968;-41
2021/08/20 16:40:06;;;;;;;7.37;5.28;;;;;;;23.95;49.83;100125.34;1754946;79;20960;-41
2021/08/20 16:42:34;;;;;;;10.30;4.45;;;;;;;23.87;49.75;100131.23;1755541;80;21390;-41
2021/08/20 16:45:02;;;;;;;6.95;4.40;;;;;;;23.81;50.05;100135.70;1777329;78;20910;-42
2021/08/20 16:47:30;;;;;;;10.90;3.65;;;;;;;23.71;50.68;100139.55;1719981;80;21072;-41
2021/08/20 16:49:57;;;;;;;15.50;4.00;;;;;;;23.62;50.36;100138.47;1764725;79;21024;-41
2021/08/20 16:52:23;;;;;;;6.70;3.90;;;;;;;23.56;50.49;100146.02;1763397;80;20976;-42
2021/08/20 16:54:51;;;;;;;8.93;3.67;;;;;;;23.49;50.42;100146.51;1769257;79;21121;-42
2021/08/20 16:57:21;;;;;;;7.83;3.67;;;;;;;23.41;50.58;100149.38;1801368;79;21085;-42
2021/08/20 16:59:48;;;;;;;10.03;3.40;;;;;;;23.35;50.51;100153.33;1788594;79;20941;-41
2021/08/20 17:02:15;;;;;;;7.50;4.22;;;;;;;23.32;50.61;100162.81;1787713;79;21513;-40
2021/08/20 17:04:41;;;;;;;5.72;3.40;;;;;;;23.28;50.83;100157.41;1793950;79;21034;-41
2021/08/20 17:07:07;;;;;;;7.03;3.55;;;;;;;23.25;50.85;100159.83;1795258;79;22084;-40
2021/08/20 17:09:34;;;;;;;10.63;3.80;;;;;;;23.22;50.99;100160.00;1799041;79;21376;-40
2021/08/20 17:12:02;;;;;;;4.22;3.50;;;;;;;23.18;51.52;100167.34;1804602;78;21016;-41
2021/08/20 17:14:31;;;;;;;4.47;3.33;;;;;;;23.13;50.92;100166.85;1787427;78;20900;-40
2021/08/20 17:17:01;;;;;;;7.92;3.92;;;;;;;23.10;51.01;100166.59;1793971;78;20970;-40
2021/08/20 17:19:27;;;;;;;4.22;3.62;;;;;;;23.11;51.03;100179.30;1800472;79;20999;-42
2021/08/20 17:21:54;;;;;;;6.75;3.55;;;;;;;23.10;51.22;100186.85;1754996;80;21195;-42
2021/08/20 17:24:20;;;;;;;22.27;8.53;;;;;;;23.07;51.14;100191.91;1779567;79;20933;-41
2021/08/20 17:26:47;;;;;;;15.93;7.62;;;;;;;23.06;51.31;100195.97;1755797;79;21054;-42
2021/08/20 17:29:13;;;;;;;10.32;6.78;;;;;;;23.03;51.52;100208.08;1778973;79;20980;-42
2021/08/20 17:31:40;;;;;;;15.13;7.17;;;;;;;23.00;51.57;100216.23;1760879;79;20923;-42
2021/08/20 17:34:06;;;;;;;11.38;5.83;;;;;;;22.97;51.62;100219.92;1752658;81;21124;-41
2021/08/20 17:36:33;;;;;;;7.97;4.90;;;;;;;22.96;51.94;100223.06;1753073;80;20947;-42
2021/08/20 17:39:00;;;;;;;10.08;3.92;;;;;;;22.95;51.52;100225.33;1770619;79;21031;-41
2021/08/20 17:41:26;;;;;;;12.35;4.37;;;;;;;22.96;51.99;100231.44;1771705;79;21659;-41
2021/08/20 17:43:54;;;;;;;21.73;9.05;;;;;;;22.92;51.97;100234.80;1770774;79;22115;-42
2021/08/20 17:46:21;;;;;;;9.18;5.62;;;;;;;22.89;52.18;100233.71;1773295;80;21124;-40
2021/08/20 17:48:48;;;;;;;14.83;5.55;;;;;;;22.87;51.84;100241.36;1764617;79;21007;-41
2021/08/20 17:51:14;;;;;;;13.13;6.58;;;;;;;22.86;52.21;100241.86;1740674;80;21078;-42
2021/08/20 17:53:41;;;;;;;11.30;5.67;;;;;;;22.82;52.06;100241.23;1758302;80;21090;-41
2021/08/20 17:56:08;;;;;;;15.03;7.25;;;;;;;22.79;52.20;100245.41;1733754;80;20969;-42
2021/08/20 17:58:34;;;;;;;13.25;5.70;;;;;;;22.75;52.16;100236.52;1762887;79;21132;-42
2021/08/20 18:01:01;;;;;;;11.05;6.85;;;;;;;22.72;52.01;100235.42;1784267;79;20963;-41
2021/08/20 18:03:27;;;;;;;13.40;6.90;;;;;;;22.70;52.18;100242.61;1777630;79;21101;-39
2021/08/20 18:05:56;;;;;;;8.83;5.75;;;;;;;22.66;52.00;100245.94;1787284;79;20983;-40
2021/08/20 18:08:23;;;;;;;10.55;5.28;;;;;;;22.64;52.06;100255.30;1749301;79;21446;-40
2021/08/20 18:10:51;;;;;;;8.45;5.15;;;;;;;22.61;52.33;100256.84;1735615;81;21584;-40
2021/08/20 18:13:19;;;;;;;5.67;4.53;;;;;;;22.60;51.99;100264.36;1777863;79;21529;-40
2021/08/20 18:15:46;;;;;;;10.40;4.62;;;;;;;22.58;52.25;100263.63;1779146;79;20963;-41
2021/08/20 18:18:16;;;;;;;7.00;4.25;;;;;;;22.57;52.14;100263.27;1775334;79;20920;-41
2021/08/20 18:20:45;;;;;;;7.85;4.85;;;;;;;22.57;52.19;100267.22;1764327;79;20955;-40
2021/08/20 18:23:13;;;;;;;23.10;5.03;;;;;;;22.55;52.64;100267.81;1764689;80;21022;-40
2021/08/20 18:25:41;;;;;;;8.78;4.70;;;;;;;22.52;52.55;100270.67;1769886;79;21570;-40
2021/08/20 18:28:08;;;;;;;9.70;4.90;;;;;;;22.48;52.55;100270.53;1769178;78;21002;-43
2021/08/20 18:30:39;;;;;;;8.40;4.95;;;;;;;22.46;52.13;100263.17;1787176;78;20988;-40
2021/08/20 18:33:06;;;;;;;10.08;4.90;;;;;;;22.45;52.65;100272.87;1753865;80;20987;-43
2021/08/20 18:35:36;;;;;;;7.75;4.20;;;;;;;22.42;52.22;100264.36;1774316;79;21144;-42
2021/08/20 18:38:05;;;;;;;6.97;4.05;;;;;;;22.40;52.53;100267.09;1776304;80;21517;-41
2021/08/20 18:40:33;;;;;;;8.75;4.03;;;;;;;22.37;52.74;100265.53;1769655;79;20988;-42
2021/08/20 18:43:04;;;;;;;9.45;4.08;;;;;;;22.33;52.85;100269.31;1739084;80;20977;-42
2021/08/20 18:45:31;;;;;;;4.65;3.75;;;;;;;22.29;52.99;100270.48;1691307;82;21125;-40
2021/08/20 18:47:58;;;;;;;5.45;3.05;;;;;;;22.26;53.06;100272.02;1736772;81;21126;-41
2021/08/20 18:50:25;;;;;;;3.65;3.00;;;;;;;22.25;52.77;100275.61;1696695;82;20958;-41
2021/08/20 18:52:53;;;;;;;7.90;3.33;;;;;;;22.23;52.88;100275.73;1695285;83;21046;-41
2021/08/20 18:55:21;;;;;;;7.92;3.20;;;;;;;22.21;53.32;100280.25;1709950;82;21035;-41
2021/08/20 18:57:47;;;;;;;6.90;3.17;;;;;;;22.19;53.32;100280.01;1797528;79;20999;-40
2021/08/20 19:00:15;;;;;;;9.03;3.02;;;;;;;22.17;53.58;100281.91;1798504;79;21042;-41
2021/08/20 19:02:42;;;;;;;5.17;2.60;;;;;;;22.14;53.39;100275.05;1779571;79;20988;-40
2021/08/20 19:05:10;;;;;;;10.98;2.95;;;;;;;22.12;53.90;100280.91;1773817;79;20912;-42
2021/08/20 19:07:38;;;;;;;11.63;3.52;;;;;;;22.10;53.77;100286.30;1773154;80;20967;-40
2021/08/20 19:10:07;;;;;;;5.75;2.70;;;;;;;22.07;53.79;100282.53;1762497;79;21008;-40
2021/08/20 19:12:36;;;;;;;4.70;3.12;;;;;;;22.07;53.67;100285.17;1736850;81;21774;-41
2021/08/20 19:15:08;;;;;;;5.00;3.27;;;;;;;22.07;53.41;100283.84;1742310;81;22709;-41
2021/08/20 19:17:36;;;;;;;10.48;2.65;;;;;;;22.05;53.75;100283.61;1757180;80;20922;-45
2021/08/20 19:20:07;;;;;;;7.37;3.17;;;;;;;22.02;54.02;100278.55;1735029;82;21102;-42
2021/08/20 19:22:39;;;;;;;6.00;3.25;;;;;;;21.99;54.16;100277.45;1730896;82;20941;-41
2021/08/20 19:25:08;;;;;;;2.67;2.45;;;;;;;21.95;54.30;100282.08;1720473;82;21584;-41
2021/08/20 19:27:35;;;;;;;6.17;3.15;;;;;;;21.92;54.36;100277.86;1697952;82;22503;-42
2021/08/20 19:30:03;;;;;;;6.35;2.90;;;;;;;21.90;54.50;100280.25;1705947;82;21075;-40
2021/08/20 19:32:30;;;;;;;4.67;2.65;;;;;;;21.86;54.45;100277.46;1704010;83;20945;-42
2021/08/20 19:34:56;;;;;;;3.65;2.70;;;;;;;21.86;54.57;100278.78;1776468;78;21047;-41
2021/08/20 19:37:23;;;;;;;3.92;2.62;;;;;;;21.84;54.56;100278.02;1781824;79;22026;-41
2021/08/20 19:39:49;;;;;;;4.67;2.90;;;;;;;21.81;54.67;100277.77;1766371;79;21497;-42
2021/08/20 19:42:17;;;;;;;6.03;3.02;;;;;;;21.77;55.34;100278.44;1749418;80;20983;-42
2021/08/20 19:44:43;;;;;;;6.00;3.08;;;;;;;21.72;56.56;100274.42;1777565;79;21035;-40
2021/08/20 19:47:10;;;;;;;4.62;3.30;;;;;;;21.62;56.87;100280.80;1773232;79;20987;-40
2021/08/20 19:49:37;;;;;;;6.08;2.92;;;;;;;21.52;56.69;100285.34;1773187;80;21140;-42
2021/08/20 19:52:04;;;;;;;8.20;3.67;;;;;;;21.44;57.10;100283.71;1771680;79;20951;-41
2021/08/20 19:54:32;;;;;;;4.03;2.77;;;;;;;21.36;57.66;100287.34;1788219;78;20932;-39
2021/08/20 19:56:58;;;;;;;10.68;3.40;;;;;;;21.27;57.86;100283.98;1797878;78;20904;-41
2021/08/20 19:59:25;;;;;;;6.22;3.15;;;;;;;21.17;58.03;100283.74;1787934;79;20990;-41
2021/08/20 20:01:51;;;;;;;3.30;2.80;;;;;;;21.07;58.26;100291.39;1777088;79;22191;-41
2021/08/20 20:04:17;;;;;;;9.30;3.20;;;;;;;20.99;58.88;100291.06;1781012;79;21509;-41
2021/08/20 20:06:46;;;;;;;5.35;3.12;;;;;;;20.88;59.31;100295.24;1776553;79;21555;-40
2021/08/20 20:09:12;;;;;;;8.48;3.30;;;;;;;20.78;59.53;100294.09;1752166;80;21521;-41
2021/08/20 20:11:42;;;;;;;7.72;3.20;;;;;;;20.68;59.97;100303.89;1750736;79;21026;-41
2021/08/20 20:14:08;;;;;;;11.55;3.37;;;;;;;20.58;60.18;100302.77;1770136;79;21225;-42
2021/08/20 20:16:37;;;;;;;4.85;3.45;;;;;;;20.51;60.47;100302.34;1784833;78;21050;-41
2021/08/20 20:19:04;;;;;;;4.10;3.12;;;;;;;20.44;60.90;100298.87;1794821;78;21074;-41
2021/08/20 20:21:30;;;;;;;9.93;3.70;;;;;;;20.35;61.24;100298.52;1768455;80;21003;-40
2021/08/20 20:23:58;;;;;;;9.20;3.65;;;;;;;20.29;61.58;100298.87;1715019;82;21546;-40
2021/08/20 20:26:24;;;;;;;3.80;3.02;;;;;;;20.24;61.80;100297.00;1717109;82;21522;-41
2021/08/20 20:28:51;;;;;;;8.23;3.30;;;;;;;20.19;62.28;100296.45;1723757;81;21119;-40
2021/08/20 20:31:18;;;;;;;10.50;3.37;;;;;;;20.14;62.45;100301.14;1710260;82;21532;-41
2021/08/20 20:33:44;;;;;;;5.85;3.42;;;;;;;20.08;62.62;100296.65;1770460;80;21046;-40
2021/08/20 20:36:11;;;;;;;4.97;3.20;;;;;;;20.04;62.86;100299.06;1758667;80;21031;-41
2021/08/20 20:38:39;;;;;;;4.45;3.10;;;;;;;20.00;63.19;100299.36;1784743;78;20967;-41
2021/08/20 20:41:06;;;;;;;11.97;4.33;;;;;;;19.95;63.79;100301.77;1770964;79;21042;-40
2021/08/20 20:43:32;;;;;;;5.08;3.10;;;;;;;19.91;64.21;100302.06;1746603;81;20980;-41
2021/08/20 20:45:59;;;;;;;4.42;2.85;;;;;;;19.85;64.70;100297.16;1747000;81;21004;-39
2021/08/20 20:48:26;;;;;;;7.65;3.20;;;;;;;19.81;64.56;100296.00;1753339;80;20948;-39
2021/08/20 20:50:52;;;;;;;5.03;3.08;;;;;;;19.81;65.07;100293.38;1761692;80;21537;-40
2021/08/20 20:53:19;;;;;;;5.22;3.12;;;;;;;19.83;65.20;100294.61;1764834;80;21000;-41
2021/08/20 20:55:45;;;;;;;5.92;3.22;;;;;;;19.82;65.41;100291.61;1745287;78;21070;-40
2021/08/20 20:58:11;;;;;;;4.92;3.30;;;;;;;19.78;65.62;100288.31;1734102;82;20978;-40
2021/08/20 21:00:38;;;;;;;7.05;3.05;;;;;;;19.74;65.43;100279.42;1720726;82;20998;-40
2021/08/20 21:03:05;;;;;;;10.25;3.30;;;;;;;19.72;65.51;100278.19;1731328;81;21214;-40
2021/08/20 21:05:33;;;;;;;5.25;3.15;;;;;;;19.72;65.42;100282.13;1742034;80;21597;-40
2021/08/20 21:08:00;;;;;;;4.83;3.42;;;;;;;19.72;65.26;100280.81;1724410;82;21563;-40
2021/08/20 21:10:27;;;;;;;7.83;3.37;;;;;;;19.72;65.61;100282.13;1761916;81;21117;-40
2021/08/20 21:12:54;;;;;;;4.28;2.90;;;;;;;19.72;65.28;100292.62;1794178;79;21774;-40
2021/08/20 21:15:21;;;;;;;6.62;3.60;;;;;;;19.73;65.28;100292.17;1795888;79;21778;-40
2021/08/20 21:17:50;;;;;;;7.50;3.40;;;;;;;19.73;64.92;100283.81;1795246;79;21017;-40
2021/08/20 21:20:18;;;;;;;4.78;2.67;;;;;;;19.79;65.13;100290.00;1792127;79;20958;-40
2021/08/20 21:22:46;;;;;;;3.60;3.08;;;;;;;19.81;65.14;100296.00;1727556;82;21007;-40
2021/08/20 21:25:12;;;;;;;6.62;3.67;;;;;;;19.80;64.56;100290.38;1718931;82;20947;-40
2021/08/20 21:27:39;;;;;;;6.87;3.92;;;;;;;19.83;64.58;100293.30;1709784;82;21155;-40
2021/08/20 21:30:07;;;;;;;7.03;3.83;;;;;;;19.83;64.70;100294.61;1694154;84;21118;-40
2021/08/20 21:32:37;;;;;;;4.42;3.40;;;;;;;19.81;64.32;100292.06;1739826;81;21039;-40
2021/08/20 21:35:06;;;;;;;5.58;3.77;;;;;;;19.81;64.42;100296.00;1740444;82;20893;-40
2021/08/20 21:37:32;;;;;;;7.78;3.42;;;;;;;19.83;64.60;100299.87;1667452;84;21092;-40
2021/08/20 21:39:59;;;;;;;7.42;3.37;;;;;;;19.86;64.43;100296.22;1720330;81;21208;-40
2021/08/20 21:42:25;;;;;;;5.03;3.20;;;;;;;19.88;64.18;100299.59;1693208;83;21035;-40
2021/08/20 21:44:52;;;;;;;4.58;3.25;;;;;;;19.89;64.12;100302.12;1729711;82;21002;-40
2021/08/20 21:47:19;;;;;;;13.13;3.70;;;;;;;19.88;64.19;100297.80;1731784;82;20955;-40
2021/08/20 21:49:46;;;;;;;11.30;3.30;;;;;;;19.88;63.93;100305.68;1729039;81;21021;-40
2021/08/20 21:52:13;;;;;;;7.15;3.20;;;;;;;19.91;63.92;100299.44;1729762;82;21862;-40
2021/08/20 21:54:39;;;;;;;7.17;3.47;;;;;;;19.92;64.05;100305.07;1730681;82;21627;-40
2021/08/20 21:57:06;;;;;;;7.83;3.67;;;;;;;19.93;63.43;100298.39;1715941;82;21646;-40
2021/08/20 21:59:33;;;;;;;8.00;3.40;;;;;;;19.97;63.58;100304.31;1729065;82;21531;-40
2021/08/20 22:04:15;;;;;;;10.85;3.33;;;;;;;20.08;63.39;100305.84;1794981;78;23273;-40
2021/08/20 22:06:41;;;;;;;5.87;3.62;;;;;;;20.05;63.48;100302.55;1784893;80;20998;-40
2021/08/20 22:09:08;;;;;;;9.83;3.85;;;;;;;20.03;63.75;100301.80;1772493;80;21321;-40
2021/08/20 22:11:37;;;;;;;7.78;3.30;;;;;;;19.99;63.78;100297.19;1783287;80;20939;-40
2021/08/20 22:14:07;;;;;;;11.40;3.65;;;;;;;19.98;63.88;100302.06;1764373;80;20987;-39
2021/08/20 22:16:33;;;;;;;6.45;3.42;;;;;;;19.96;63.90;100302.63;1773255;80;21069;-39
2021/08/20 22:19:00;;;;;;;11.33;4.17;;;;;;;19.93;64.31;100304.95;1790396;80;21627;-39
2021/08/20 22:21:27;;;;;;;8.33;3.35;;;;;;;19.90;64.25;100306.43;1781194;80;21198;-39
2021/08/20 22:23:55;;;;;;;5.40;3.40;;;;;;;19.89;64.28;100300.80;1764661;79;21379;-39
2021/08/20 22:26:21;;;;;;;6.15;3.75;;;;;;;19.88;64.23;100299.59;1759555;80;21009;-39
2021/08/20 22:28:49;;;;;;;4.83;3.70;;;;;;;19.86;64.53;100307.55;1764288;79;21018;-40